sensor_id;sensor_type;location;lat;lon;timestamp;P1;durP1;ratioP1;P2;durP2;ratioP2
77944;SDS011;67142;47.404;-1.384;2023-06-26T00:02:23;228.27;;;103.22;;
77944;SDS011;67142;47.404;-1.384;2023-06-26T00:04:49;225.05;;;102.43;;
77944;SDS011;67142;47.404;-1.384;2023-06-26T00:07:19;233.88;;;103.80;;
77944;SDS011;67142;47.404;-1.384;2023-06-26T00:09:45;234.15;;;103.97;;
77944;SDS011;67142;47.404;-1.384;2023-06-26T00:12:11;234.80;;;103.32;;
77944;SDS011;67142;47.404;-1.384;2023-06-26T00:14:37;235.33;;;103.30;;
77944;SDS011;67142;47.404;-1.384;2023-06-26T00:17:03;235.90;;;104.53;;
77944;SDS011;67142;47.404;-1.384;2023-06-26T00:19:29;241.23;;;106.20;;
77944;SDS011;67142;47.404;-1.384;2023-06-26T00:21:55;242.25;;;105.85;;
77944;SDS011;67142;47.404;-1.384;2023-06-26T00:24:21;238.32;;;104.47;;
77944;SDS011;67142;47.404;-1.384;2023-06-26T00:26:47;234.43;;;104.00;;
77944;SDS011;67142;47.404;-1.384;2023-06-26T00:29:13;241.65;;;105.85;;
77944;SDS011;67142;47.404;-1.384;2023-06-26T00:31:39;239.15;;;104.53;;
77944;SDS011;67142;47.404;-1.384;2023-06-26T00:34:06;243.82;;;105.55;;
77944;SDS011;67142;47.404;-1.384;2023-06-26T00:36:32;242.82;;;106.43;;
77944;SDS011;67142;47.404;-1.384;2023-06-26T00:38:58;245.80;;;106.50;;
77944;SDS011;67142;47.404;-1.384;2023-06-26T00:41:24;250.98;;;106.78;;
77944;SDS011;67142;47.404;-1.384;2023-06-26T00:43:50;246.63;;;107.00;;
77944;SDS011;67142;47.404;-1.384;2023-06-26T00:46:16;249.40;;;107.13;;
77944;SDS011;67142;47.404;-1.384;2023-06-26T00:48:43;254.75;;;108.18;;
77944;SDS011;67142;47.404;-1.384;2023-06-26T00:51:09;262.00;;;109.55;;
77944;SDS011;67142;47.404;-1.384;2023-06-26T00:53:35;263.60;;;109.65;;
77944;SDS011;67142;47.404;-1.384;2023-06-26T00:56:02;262.08;;;109.35;;
77944;SDS011;67142;47.404;-1.384;2023-06-26T00:58:28;266.30;;;110.10;;
77944;SDS011;67142;47.404;-1.384;2023-06-26T01:00:55;259.05;;;108.40;;
77944;SDS011;67142;47.404;-1.384;2023-06-26T01:03:22;257.75;;;108.18;;
77944;SDS011;67142;47.404;-1.384;2023-06-26T01:05:49;269.80;;;110.53;;
77944;SDS011;67142;47.404;-1.384;2023-06-26T01:08:16;262.20;;;109.50;;
77944;SDS011;67142;47.404;-1.384;2023-06-26T01:10:42;260.80;;;109.10;;
77944;SDS011;67142;47.404;-1.384;2023-06-26T01:13:08;259.83;;;108.60;;
77944;SDS011;67142;47.404;-1.384;2023-06-26T01:15:34;252.50;;;107.93;;
77944;SDS011;67142;47.404;-1.384;2023-06-26T01:18:00;261.77;;;109.65;;
77944;SDS011;67142;47.404;-1.384;2023-06-26T01:20:28;257.80;;;109.40;;
77944;SDS011;67142;47.404;-1.384;2023-06-26T01:23:04;255.30;;;108.90;;
77944;SDS011;67142;47.404;-1.384;2023-06-26T01:28:06;254.53;;;107.83;;
77944;SDS011;67142;47.404;-1.384;2023-06-26T01:30:33;258.23;;;109.00;;
77944;SDS011;67142;47.404;-1.384;2023-06-26T01:33:00;240.95;;;105.40;;
77944;SDS011;67142;47.404;-1.384;2023-06-26T01:35:27;239.45;;;104.88;;
77944;SDS011;67142;47.404;-1.384;2023-06-26T01:37:53;238.77;;;104.55;;
77944;SDS011;67142;47.404;-1.384;2023-06-26T01:40:19;245.55;;;105.93;;
77944;SDS011;67142;47.404;-1.384;2023-06-26T01:42:45;254.60;;;108.53;;
77944;SDS011;67142;47.404;-1.384;2023-06-26T01:45:15;254.60;;;109.00;;
77944;SDS011;67142;47.404;-1.384;2023-06-26T01:47:44;256.27;;;108.10;;
77944;SDS011;67142;47.404;-1.384;2023-06-26T01:50:13;253.45;;;107.88;;
77944;SDS011;67142;47.404;-1.384;2023-06-26T01:52:40;256.38;;;107.93;;
77944;SDS011;67142;47.404;-1.384;2023-06-26T01:57:36;254.90;;;108.15;;
77944;SDS011;67142;47.404;-1.384;2023-06-26T02:00:04;259.05;;;109.43;;
77944;SDS011;67142;47.404;-1.384;2023-06-26T02:02:31;254.13;;;108.35;;
77944;SDS011;67142;47.404;-1.384;2023-06-26T02:04:57;256.60;;;108.85;;
77944;SDS011;67142;47.404;-1.384;2023-06-26T02:07:23;270.58;;;110.40;;
77944;SDS011;67142;47.404;-1.384;2023-06-26T02:09:49;281.63;;;113.60;;
77944;SDS011;67142;47.404;-1.384;2023-06-26T02:12:15;276.10;;;112.00;;
77944;SDS011;67142;47.404;-1.384;2023-06-26T02:14:41;270.38;;;110.53;;
77944;SDS011;67142;47.404;-1.384;2023-06-26T02:17:07;267.77;;;110.55;;
77944;SDS011;67142;47.404;-1.384;2023-06-26T02:19:34;272.00;;;111.05;;
77944;SDS011;67142;47.404;-1.384;2023-06-26T02:22:00;276.95;;;112.07;;
77944;SDS011;67142;47.404;-1.384;2023-06-26T02:24:26;252.57;;;107.25;;
77944;SDS011;67142;47.404;-1.384;2023-06-26T02:26:55;266.35;;;110.25;;
77944;SDS011;67142;47.404;-1.384;2023-06-26T02:29:21;266.55;;;110.07;;
77944;SDS011;67142;47.404;-1.384;2023-06-26T02:31:47;264.80;;;110.00;;
77944;SDS011;67142;47.404;-1.384;2023-06-26T02:34:14;261.10;;;110.03;;
77944;SDS011;67142;47.404;-1.384;2023-06-26T02:36:40;261.83;;;108.68;;
77944;SDS011;67142;47.404;-1.384;2023-06-26T02:39:06;266.70;;;109.90;;
77944;SDS011;67142;47.404;-1.384;2023-06-26T02:41:32;269.67;;;111.00;;
77944;SDS011;67142;47.404;-1.384;2023-06-26T02:43:58;272.05;;;110.60;;
77944;SDS011;67142;47.404;-1.384;2023-06-26T02:46:24;270.40;;;110.38;;
77944;SDS011;67142;47.404;-1.384;2023-06-26T02:48:50;273.03;;;111.10;;
77944;SDS011;67142;47.404;-1.384;2023-06-26T02:51:16;277.25;;;112.07;;
77944;SDS011;67142;47.404;-1.384;2023-06-26T02:53:42;274.02;;;110.93;;
77944;SDS011;67142;47.404;-1.384;2023-06-26T02:56:08;286.92;;;113.97;;
77944;SDS011;67142;47.404;-1.384;2023-06-26T02:58:34;282.92;;;112.88;;
77944;SDS011;67142;47.404;-1.384;2023-06-26T03:01:00;286.65;;;114.15;;
77944;SDS011;67142;47.404;-1.384;2023-06-26T03:03:26;283.70;;;113.07;;
77944;SDS011;67142;47.404;-1.384;2023-06-26T03:05:52;281.50;;;113.57;;
77944;SDS011;67142;47.404;-1.384;2023-06-26T03:08:18;285.45;;;114.35;;
77944;SDS011;67142;47.404;-1.384;2023-06-26T03:10:44;270.65;;;110.80;;
77944;SDS011;67142;47.404;-1.384;2023-06-26T03:13:10;280.45;;;112.93;;
77944;SDS011;67142;47.404;-1.384;2023-06-26T03:15:37;271.67;;;111.22;;
77944;SDS011;67142;47.404;-1.384;2023-06-26T03:18:03;270.90;;;111.43;;
77944;SDS011;67142;47.404;-1.384;2023-06-26T03:20:29;278.48;;;112.93;;
77944;SDS011;67142;47.404;-1.384;2023-06-26T03:22:55;274.30;;;111.57;;
77944;SDS011;67142;47.404;-1.384;2023-06-26T03:25:21;269.90;;;110.40;;
77944;SDS011;67142;47.404;-1.384;2023-06-26T03:27:47;280.00;;;111.80;;
77944;SDS011;67142;47.404;-1.384;2023-06-26T03:30:13;275.73;;;112.32;;
77944;SDS011;67142;47.404;-1.384;2023-06-26T03:32:39;278.88;;;112.35;;
77944;SDS011;67142;47.404;-1.384;2023-06-26T03:35:05;285.40;;;113.30;;
77944;SDS011;67142;47.404;-1.384;2023-06-26T03:37:31;291.55;;;115.43;;
77944;SDS011;67142;47.404;-1.384;2023-06-26T03:39:58;297.17;;;115.97;;
77944;SDS011;67142;47.404;-1.384;2023-06-26T03:42:24;293.93;;;115.27;;
77944;SDS011;67142;47.404;-1.384;2023-06-26T03:44:50;296.55;;;115.57;;
77944;SDS011;67142;47.404;-1.384;2023-06-26T03:47:16;296.17;;;115.30;;
77944;SDS011;67142;47.404;-1.384;2023-06-26T03:49:42;300.45;;;116.63;;
77944;SDS011;67142;47.404;-1.384;2023-06-26T03:52:08;286.52;;;113.95;;
77944;SDS011;67142;47.404;-1.384;2023-06-26T03:54:34;296.80;;;115.88;;
77944;SDS011;67142;47.404;-1.384;2023-06-26T03:57:00;301.58;;;116.90;;
77944;SDS011;67142;47.404;-1.384;2023-06-26T03:59:26;309.70;;;118.73;;
77944;SDS011;67142;47.404;-1.384;2023-06-26T04:01:52;304.42;;;117.53;;
77944;SDS011;67142;47.404;-1.384;2023-06-26T04:04:18;303.70;;;116.80;;
77944;SDS011;67142;47.404;-1.384;2023-06-26T04:06:44;298.30;;;115.97;;
77944;SDS011;67142;47.404;-1.384;2023-06-26T04:09:10;292.30;;;115.82;;
77944;SDS011;67142;47.404;-1.384;2023-06-26T04:11:36;302.00;;;117.22;;
77944;SDS011;67142;47.404;-1.384;2023-06-26T04:14:02;299.20;;;116.57;;
77944;SDS011;67142;47.404;-1.384;2023-06-26T04:16:28;308.10;;;119.10;;
77944;SDS011;67142;47.404;-1.384;2023-06-26T04:18:54;297.08;;;116.13;;
77944;SDS011;67142;47.404;-1.384;2023-06-26T04:21:21;302.93;;;117.57;;
77944;SDS011;67142;47.404;-1.384;2023-06-26T04:23:50;315.80;;;119.20;;
77944;SDS011;67142;47.404;-1.384;2023-06-26T04:26:16;319.38;;;120.68;;
77944;SDS011;67142;47.404;-1.384;2023-06-26T04:28:42;323.17;;;121.38;;
77944;SDS011;67142;47.404;-1.384;2023-06-26T04:31:08;325.85;;;121.72;;
77944;SDS011;67142;47.404;-1.384;2023-06-26T04:33:35;330.52;;;122.13;;
77944;SDS011;67142;47.404;-1.384;2023-06-26T04:36:01;323.48;;;120.85;;
77944;SDS011;67142;47.404;-1.384;2023-06-26T04:38:28;322.83;;;120.45;;
77944;SDS011;67142;47.404;-1.384;2023-06-26T04:40:54;326.17;;;121.37;;
77944;SDS011;67142;47.404;-1.384;2023-06-26T04:43:20;323.23;;;121.40;;
77944;SDS011;67142;47.404;-1.384;2023-06-26T04:45:46;328.63;;;122.38;;
77944;SDS011;67142;47.404;-1.384;2023-06-26T04:48:12;334.98;;;123.65;;
77944;SDS011;67142;47.404;-1.384;2023-06-26T04:50:39;334.38;;;123.47;;
77944;SDS011;67142;47.404;-1.384;2023-06-26T04:53:05;338.63;;;123.65;;
77944;SDS011;67142;47.404;-1.384;2023-06-26T04:55:31;343.33;;;125.15;;
77944;SDS011;67142;47.404;-1.384;2023-06-26T04:57:57;341.42;;;124.93;;
77944;SDS011;67142;47.404;-1.384;2023-06-26T05:00:23;329.90;;;122.70;;
77944;SDS011;67142;47.404;-1.384;2023-06-26T05:02:50;338.05;;;124.32;;
77944;SDS011;67142;47.404;-1.384;2023-06-26T05:05:26;336.23;;;122.97;;
77944;SDS011;67142;47.404;-1.384;2023-06-26T05:07:53;334.77;;;123.10;;
77944;SDS011;67142;47.404;-1.384;2023-06-26T05:10:19;334.00;;;123.57;;
77944;SDS011;67142;47.404;-1.384;2023-06-26T05:12:45;335.58;;;123.45;;
77944;SDS011;67142;47.404;-1.384;2023-06-26T05:15:11;328.52;;;121.47;;
77944;SDS011;67142;47.404;-1.384;2023-06-26T05:17:37;326.83;;;122.27;;
77944;SDS011;67142;47.404;-1.384;2023-06-26T05:20:03;333.07;;;123.53;;
77944;SDS011;67142;47.404;-1.384;2023-06-26T05:22:30;327.63;;;122.13;;
77944;SDS011;67142;47.404;-1.384;2023-06-26T05:24:57;323.27;;;122.13;;
77944;SDS011;67142;47.404;-1.384;2023-06-26T05:27:25;326.58;;;121.10;;
77944;SDS011;67142;47.404;-1.384;2023-06-26T05:29:52;322.15;;;120.82;;
77944;SDS011;67142;47.404;-1.384;2023-06-26T05:32:18;315.33;;;119.72;;
77944;SDS011;67142;47.404;-1.384;2023-06-26T05:34:47;324.45;;;121.28;;
77944;SDS011;67142;47.404;-1.384;2023-06-26T05:37:18;322.95;;;120.90;;
77944;SDS011;67142;47.404;-1.384;2023-06-26T05:39:45;321.65;;;121.03;;
77944;SDS011;67142;47.404;-1.384;2023-06-26T05:42:12;327.55;;;122.57;;
77944;SDS011;67142;47.404;-1.384;2023-06-26T05:44:38;325.50;;;122.07;;
77944;SDS011;67142;47.404;-1.384;2023-06-26T05:47:04;323.45;;;121.28;;
77944;SDS011;67142;47.404;-1.384;2023-06-26T05:49:30;328.48;;;122.32;;
77944;SDS011;67142;47.404;-1.384;2023-06-26T05:51:56;315.20;;;119.97;;
77944;SDS011;67142;47.404;-1.384;2023-06-26T05:54:23;324.45;;;121.05;;
77944;SDS011;67142;47.404;-1.384;2023-06-26T05:56:50;321.53;;;120.93;;
77944;SDS011;67142;47.404;-1.384;2023-06-26T05:59:18;329.65;;;123.10;;
77944;SDS011;67142;47.404;-1.384;2023-06-26T06:01:44;330.67;;;122.87;;
77944;SDS011;67142;47.404;-1.384;2023-06-26T06:04:10;324.50;;;121.73;;
77944;SDS011;67142;47.404;-1.384;2023-06-26T06:06:36;326.88;;;121.75;;
77944;SDS011;67142;47.404;-1.384;2023-06-26T06:09:02;354.45;;;127.22;;
77944;SDS011;67142;47.404;-1.384;2023-06-26T06:16:23;331.38;;;124.47;;
77944;SDS011;67142;47.404;-1.384;2023-06-26T06:18:49;288.85;;;115.55;;
77944;SDS011;67142;47.404;-1.384;2023-06-26T06:21:15;263.13;;;111.18;;
77944;SDS011;67142;47.404;-1.384;2023-06-26T06:23:41;267.55;;;111.50;;
77944;SDS011;67142;47.404;-1.384;2023-06-26T06:26:08;272.63;;;112.78;;
77944;SDS011;67142;47.404;-1.384;2023-06-26T06:28:34;276.67;;;113.22;;
77944;SDS011;67142;47.404;-1.384;2023-06-26T06:31:00;260.80;;;110.43;;
77944;SDS011;67142;47.404;-1.384;2023-06-26T06:33:26;259.70;;;109.50;;
77944;SDS011;67142;47.404;-1.384;2023-06-26T06:35:52;248.83;;;107.23;;
77944;SDS011;67142;47.404;-1.384;2023-06-26T06:38:18;240.80;;;106.13;;
77944;SDS011;67142;47.404;-1.384;2023-06-26T06:40:44;267.00;;;111.72;;
77944;SDS011;67142;47.404;-1.384;2023-06-26T06:43:10;265.15;;;110.57;;
77944;SDS011;67142;47.404;-1.384;2023-06-26T06:45:36;265.58;;;111.60;;
77944;SDS011;67142;47.404;-1.384;2023-06-26T06:48:03;273.00;;;112.57;;
77944;SDS011;67142;47.404;-1.384;2023-06-26T06:50:29;280.80;;;114.80;;
77944;SDS011;67142;47.404;-1.384;2023-06-26T06:52:55;276.93;;;114.37;;
77944;SDS011;67142;47.404;-1.384;2023-06-26T06:55:21;294.90;;;116.93;;
77944;SDS011;67142;47.404;-1.384;2023-06-26T06:57:48;305.30;;;118.90;;
77944;SDS011;67142;47.404;-1.384;2023-06-26T07:00:15;294.77;;;117.60;;
77944;SDS011;67142;47.404;-1.384;2023-06-26T07:02:44;302.35;;;118.07;;
77944;SDS011;67142;47.404;-1.384;2023-06-26T07:05:11;294.30;;;117.05;;
77944;SDS011;67142;47.404;-1.384;2023-06-26T07:07:37;300.67;;;118.72;;
77944;SDS011;67142;47.404;-1.384;2023-06-26T07:10:05;313.10;;;120.70;;
77944;SDS011;67142;47.404;-1.384;2023-06-26T07:12:31;319.35;;;122.55;;
77944;SDS011;67142;47.404;-1.384;2023-06-26T07:14:58;328.73;;;124.43;;
77944;SDS011;67142;47.404;-1.384;2023-06-26T07:17:24;350.75;;;128.45;;
77944;SDS011;67142;47.404;-1.384;2023-06-26T07:19:50;422.20;;;142.98;;
77944;SDS011;67142;47.404;-1.384;2023-06-26T07:22:16;390.70;;;136.10;;
77944;SDS011;67142;47.404;-1.384;2023-06-26T07:24:45;351.65;;;129.30;;
77944;SDS011;67142;47.404;-1.384;2023-06-26T07:27:11;381.65;;;133.63;;
77944;SDS011;67142;47.404;-1.384;2023-06-26T07:29:37;291.73;;;116.57;;
77944;SDS011;67142;47.404;-1.384;2023-06-26T07:32:03;306.83;;;120.20;;
77944;SDS011;67142;47.404;-1.384;2023-06-26T07:34:29;383.77;;;134.75;;
77944;SDS011;67142;47.404;-1.384;2023-06-26T07:36:55;374.90;;;133.93;;
77944;SDS011;67142;47.404;-1.384;2023-06-26T07:39:21;366.90;;;131.27;;
77944;SDS011;67142;47.404;-1.384;2023-06-26T07:41:47;297.75;;;118.90;;
77944;SDS011;67142;47.404;-1.384;2023-06-26T07:44:13;284.40;;;115.88;;
77944;SDS011;67142;47.404;-1.384;2023-06-26T07:46:39;300.85;;;119.95;;
77944;SDS011;67142;47.404;-1.384;2023-06-26T07:49:05;311.00;;;121.68;;
77944;SDS011;67142;47.404;-1.384;2023-06-26T07:51:31;332.25;;;124.85;;
77944;SDS011;67142;47.404;-1.384;2023-06-26T07:53:57;293.75;;;117.82;;
77944;SDS011;67142;47.404;-1.384;2023-06-26T07:56:23;369.38;;;132.75;;
77944;SDS011;67142;47.404;-1.384;2023-06-26T07:58:49;312.53;;;121.30;;
77944;SDS011;67142;47.404;-1.384;2023-06-26T08:01:15;417.30;;;141.82;;
77944;SDS011;67142;47.404;-1.384;2023-06-26T08:03:41;356.10;;;130.15;;
77944;SDS011;67142;47.404;-1.384;2023-06-26T08:06:07;296.90;;;118.45;;
77944;SDS011;67142;47.404;-1.384;2023-06-26T08:08:33;294.38;;;118.80;;
77944;SDS011;67142;47.404;-1.384;2023-06-26T08:10:59;360.08;;;130.45;;
77944;SDS011;67142;47.404;-1.384;2023-06-26T08:13:25;390.67;;;136.77;;
77944;SDS011;67142;47.404;-1.384;2023-06-26T08:15:51;310.70;;;121.83;;
77944;SDS011;67142;47.404;-1.384;2023-06-26T08:18:18;370.08;;;132.68;;
77944;SDS011;67142;47.404;-1.384;2023-06-26T08:20:44;359.90;;;131.40;;
77944;SDS011;67142;47.404;-1.384;2023-06-26T08:23:10;333.02;;;125.78;;
77944;SDS011;67142;47.404;-1.384;2023-06-26T08:25:36;295.05;;;118.70;;
77944;SDS011;67142;47.404;-1.384;2023-06-26T08:28:02;259.60;;;111.45;;
77944;SDS011;67142;47.404;-1.384;2023-06-26T08:30:28;242.65;;;108.15;;
77944;SDS011;67142;47.404;-1.384;2023-06-26T08:32:55;241.43;;;107.57;;
77944;SDS011;67142;47.404;-1.384;2023-06-26T08:35:21;235.60;;;107.03;;
77944;SDS011;67142;47.404;-1.384;2023-06-26T08:37:47;244.90;;;107.85;;
77944;SDS011;67142;47.404;-1.384;2023-06-26T08:40:14;242.38;;;107.85;;
77944;SDS011;67142;47.404;-1.384;2023-06-26T08:42:42;239.07;;;107.43;;
77944;SDS011;67142;47.404;-1.384;2023-06-26T08:45:08;240.25;;;108.35;;
77944;SDS011;67142;47.404;-1.384;2023-06-26T08:47:34;241.45;;;108.55;;
77944;SDS011;67142;47.404;-1.384;2023-06-26T08:50:04;229.82;;;105.55;;
77944;SDS011;67142;47.404;-1.384;2023-06-26T08:52:43;235.80;;;107.65;;
77944;SDS011;67142;47.404;-1.384;2023-06-26T08:55:09;230.88;;;107.07;;
77944;SDS011;67142;47.404;-1.384;2023-06-26T08:57:38;217.32;;;103.95;;
77944;SDS011;67142;47.404;-1.384;2023-06-26T09:00:05;231.52;;;107.15;;
77944;SDS011;67142;47.404;-1.384;2023-06-26T09:02:33;239.90;;;108.90;;
77944;SDS011;67142;47.404;-1.384;2023-06-26T09:04:59;340.67;;;128.65;;
77944;SDS011;67142;47.404;-1.384;2023-06-26T09:07:25;224.13;;;104.95;;
77944;SDS011;67142;47.404;-1.384;2023-06-26T09:09:51;213.38;;;102.38;;
77944;SDS011;67142;47.404;-1.384;2023-06-26T09:12:18;203.43;;;100.20;;
77944;SDS011;67142;47.404;-1.384;2023-06-26T09:14:45;201.30;;;100.03;;
77944;SDS011;67142;47.404;-1.384;2023-06-26T09:17:12;210.17;;;102.60;;
77944;SDS011;67142;47.404;-1.384;2023-06-26T09:19:38;206.77;;;100.63;;
77944;SDS011;67142;47.404;-1.384;2023-06-26T09:22:10;201.85;;;100.65;;
77944;SDS011;67142;47.404;-1.384;2023-06-26T09:24:36;197.83;;;100.07;;
77944;SDS011;67142;47.404;-1.384;2023-06-26T09:27:02;194.97;;;99.27;;
77944;SDS011;67142;47.404;-1.384;2023-06-26T09:29:28;199.60;;;99.83;;
77944;SDS011;67142;47.404;-1.384;2023-06-26T09:31:56;205.35;;;100.88;;
77944;SDS011;67142;47.404;-1.384;2023-06-26T09:34:23;227.18;;;105.13;;
77944;SDS011;67142;47.404;-1.384;2023-06-26T09:36:55;224.80;;;106.43;;
77944;SDS011;67142;47.404;-1.384;2023-06-26T09:39:21;230.32;;;107.25;;
77944;SDS011;67142;47.404;-1.384;2023-06-26T09:41:47;221.65;;;105.47;;
77944;SDS011;67142;47.404;-1.384;2023-06-26T09:44:14;220.80;;;105.15;;
77944;SDS011;67142;47.404;-1.384;2023-06-26T09:46:40;236.85;;;108.85;;
77944;SDS011;67142;47.404;-1.384;2023-06-26T09:51:35;233.15;;;108.95;;
77944;SDS011;67142;47.404;-1.384;2023-06-26T09:54:02;232.30;;;107.90;;
77944;SDS011;67142;47.404;-1.384;2023-06-26T09:56:28;245.00;;;110.72;;
77944;SDS011;67142;47.404;-1.384;2023-06-26T09:59:01;261.73;;;113.28;;
77944;SDS011;67142;47.404;-1.384;2023-06-26T10:01:28;283.67;;;117.93;;
77944;SDS011;67142;47.404;-1.384;2023-06-26T10:03:54;279.33;;;117.45;;
77944;SDS011;67142;47.404;-1.384;2023-06-26T10:06:39;242.82;;;110.90;;
77944;SDS011;67142;47.404;-1.384;2023-06-26T10:09:05;218.85;;;106.55;;
77944;SDS011;67142;47.404;-1.384;2023-06-26T10:11:36;211.55;;;105.38;;
77944;SDS011;67142;47.404;-1.384;2023-06-26T10:14:03;219.88;;;106.93;;
77944;SDS011;67142;47.404;-1.384;2023-06-26T10:16:30;236.95;;;109.80;;
77944;SDS011;67142;47.404;-1.384;2023-06-26T10:18:58;284.45;;;119.53;;
77944;SDS011;67142;47.404;-1.384;2023-06-26T10:21:26;313.25;;;124.78;;
77944;SDS011;67142;47.404;-1.384;2023-06-26T10:23:53;230.90;;;109.78;;
77944;SDS011;67142;47.404;-1.384;2023-06-26T10:26:20;194.95;;;102.85;;
77944;SDS011;67142;47.404;-1.384;2023-06-26T10:28:47;182.15;;;98.75;;
77944;SDS011;67142;47.404;-1.384;2023-06-26T10:31:17;189.40;;;100.65;;
77944;SDS011;67142;47.404;-1.384;2023-06-26T10:33:45;178.85;;;98.55;;
77944;SDS011;67142;47.404;-1.384;2023-06-26T10:36:13;190.02;;;100.28;;
77944;SDS011;67142;47.404;-1.384;2023-06-26T10:38:49;189.03;;;99.67;;
77944;SDS011;67142;47.404;-1.384;2023-06-26T10:41:15;202.83;;;103.07;;
77944;SDS011;67142;47.404;-1.384;2023-06-26T10:43:44;193.60;;;101.80;;
77944;SDS011;67142;47.404;-1.384;2023-06-26T10:46:14;194.98;;;102.63;;
77944;SDS011;67142;47.404;-1.384;2023-06-26T10:48:59;171.38;;;97.07;;
77944;SDS011;67142;47.404;-1.384;2023-06-26T10:51:28;160.90;;;94.37;;
77944;SDS011;67142;47.404;-1.384;2023-06-26T10:53:57;163.80;;;95.45;;
77944;SDS011;67142;47.404;-1.384;2023-06-26T10:59:28;158.38;;;94.35;;
77944;SDS011;67142;47.404;-1.384;2023-06-26T11:01:54;154.37;;;92.90;;
77944;SDS011;67142;47.404;-1.384;2023-06-26T11:07:18;137.88;;;88.95;;
77944;SDS011;67142;47.404;-1.384;2023-06-26T11:12:39;163.25;;;93.25;;
77944;SDS011;67142;47.404;-1.384;2023-06-26T11:15:10;193.52;;;101.38;;
77944;SDS011;67142;47.404;-1.384;2023-06-26T11:17:36;193.87;;;102.10;;
77944;SDS011;67142;47.404;-1.384;2023-06-26T11:20:04;193.77;;;101.28;;
77944;SDS011;67142;47.404;-1.384;2023-06-26T11:22:33;206.25;;;104.07;;
77944;SDS011;67142;47.404;-1.384;2023-06-26T11:25:00;204.70;;;104.10;;
77944;SDS011;67142;47.404;-1.384;2023-06-26T11:27:48;190.75;;;100.53;;
77944;SDS011;67142;47.404;-1.384;2023-06-26T11:30:24;179.63;;;98.73;;
77944;SDS011;67142;47.404;-1.384;2023-06-26T11:32:50;182.88;;;98.40;;
77944;SDS011;67142;47.404;-1.384;2023-06-26T11:35:22;192.65;;;100.47;;
77944;SDS011;67142;47.404;-1.384;2023-06-26T11:37:58;203.23;;;104.13;;
77944;SDS011;67142;47.404;-1.384;2023-06-26T11:40:26;197.40;;;102.82;;
77944;SDS011;67142;47.404;-1.384;2023-06-26T11:42:55;167.03;;;96.17;;
77944;SDS011;67142;47.404;-1.384;2023-06-26T11:45:21;167.48;;;96.88;;
77944;SDS011;67142;47.404;-1.384;2023-06-26T11:47:47;162.88;;;94.40;;
77944;SDS011;67142;47.404;-1.384;2023-06-26T11:50:15;182.68;;;98.97;;
77944;SDS011;67142;47.404;-1.384;2023-06-26T11:52:44;182.38;;;98.82;;
77944;SDS011;67142;47.404;-1.384;2023-06-26T11:55:10;185.67;;;100.27;;
77944;SDS011;67142;47.404;-1.384;2023-06-26T11:57:37;180.73;;;99.68;;
77944;SDS011;67142;47.404;-1.384;2023-06-26T12:00:15;180.18;;;99.78;;
77944;SDS011;67142;47.404;-1.384;2023-06-26T12:02:42;186.05;;;100.53;;
77944;SDS011;67142;47.404;-1.384;2023-06-26T12:05:09;188.97;;;101.73;;
77944;SDS011;67142;47.404;-1.384;2023-06-26T12:07:35;198.52;;;104.10;;
77944;SDS011;67142;47.404;-1.384;2023-06-26T12:10:02;228.43;;;110.22;;
77944;SDS011;67142;47.404;-1.384;2023-06-26T12:12:30;263.92;;;117.38;;
77944;SDS011;67142;47.404;-1.384;2023-06-26T12:14:56;874.13;;;287.63;;
77944;SDS011;67142;47.404;-1.384;2023-06-26T12:17:23;959.75;;;314.05;;
77944;SDS011;67142;47.404;-1.384;2023-06-26T12:19:50;1067.45;;;345.73;;
77944;SDS011;67142;47.404;-1.384;2023-06-26T12:22:16;1100.82;;;355.90;;
77944;SDS011;67142;47.404;-1.384;2023-06-26T12:24:43;1137.97;;;366.77;;
77944;SDS011;67142;47.404;-1.384;2023-06-26T12:27:10;1145.40;;;368.88;;
77944;SDS011;67142;47.404;-1.384;2023-06-26T12:29:38;1060.53;;;343.30;;
77944;SDS011;67142;47.404;-1.384;2023-06-26T12:32:08;1100.53;;;356.15;;
77944;SDS011;67142;47.404;-1.384;2023-06-26T12:34:36;1103.57;;;356.87;;
77944;SDS011;67142;47.404;-1.384;2023-06-26T12:37:03;1092.80;;;352.23;;
77944;SDS011;67142;47.404;-1.384;2023-06-26T12:39:29;1115.40;;;359.80;;
77944;SDS011;67142;47.404;-1.384;2023-06-26T12:41:56;1089.85;;;351.75;;
77944;SDS011;67142;47.404;-1.384;2023-06-26T12:44:27;1089.90;;;351.73;;
77944;SDS011;67142;47.404;-1.384;2023-06-26T12:46:57;1072.18;;;345.58;;
77944;SDS011;67142;47.404;-1.384;2023-06-26T12:49:56;1097.60;;;353.33;;
77944;SDS011;67142;47.404;-1.384;2023-06-26T12:52:15;1064.40;;;343.05;;
77944;SDS011;67142;47.404;-1.384;2023-06-26T12:54:43;1071.18;;;344.15;;
77944;SDS011;67142;47.404;-1.384;2023-06-26T12:57:11;1085.68;;;348.38;;
77944;SDS011;67142;47.404;-1.384;2023-06-26T12:59:39;1089.15;;;348.60;;
77944;SDS011;67142;47.404;-1.384;2023-06-26T13:02:05;1076.20;;;346.50;;
77944;SDS011;67142;47.404;-1.384;2023-06-26T13:04:35;1085.97;;;349.57;;
77944;SDS011;67142;47.404;-1.384;2023-06-26T13:07:01;1093.20;;;351.53;;
77944;SDS011;67142;47.404;-1.384;2023-06-26T13:09:31;1079.70;;;346.73;;
77944;SDS011;67142;47.404;-1.384;2023-06-26T13:11:58;1072.22;;;344.55;;
77944;SDS011;67142;47.404;-1.384;2023-06-26T13:14:24;1090.60;;;350.70;;
77944;SDS011;67142;47.404;-1.384;2023-06-26T13:16:51;1104.90;;;352.77;;
77944;SDS011;67142;47.404;-1.384;2023-06-26T13:19:17;1096.82;;;350.75;;
77944;SDS011;67142;47.404;-1.384;2023-06-26T13:21:43;1107.50;;;352.35;;
77944;SDS011;67142;47.404;-1.384;2023-06-26T13:24:09;1096.75;;;347.45;;
77944;SDS011;67142;47.404;-1.384;2023-06-26T13:26:35;1046.18;;;334.70;;
77944;SDS011;67142;47.404;-1.384;2023-06-26T13:29:01;1051.80;;;336.00;;
77944;SDS011;67142;47.404;-1.384;2023-06-26T13:31:28;1053.60;;;336.60;;
77944;SDS011;67142;47.404;-1.384;2023-06-26T13:33:56;1065.78;;;339.52;;
77944;SDS011;67142;47.404;-1.384;2023-06-26T13:36:23;1073.43;;;342.30;;
77944;SDS011;67142;47.404;-1.384;2023-06-26T13:38:49;1076.00;;;342.88;;
77944;SDS011;67142;47.404;-1.384;2023-06-26T13:41:21;1062.03;;;340.07;;
77944;SDS011;67142;47.404;-1.384;2023-06-26T13:43:47;1079.95;;;345.45;;
77944;SDS011;67142;47.404;-1.384;2023-06-26T13:46:13;1073.38;;;343.25;;
77944;SDS011;67142;47.404;-1.384;2023-06-26T13:48:39;1064.72;;;340.02;;
77944;SDS011;67142;47.404;-1.384;2023-06-26T13:51:05;1080.65;;;344.63;;
77944;SDS011;67142;47.404;-1.384;2023-06-26T13:53:31;1090.03;;;348.33;;
77944;SDS011;67142;47.404;-1.384;2023-06-26T13:55:57;1097.63;;;349.70;;
77944;SDS011;67142;47.404;-1.384;2023-06-26T13:58:23;1106.22;;;351.10;;
77944;SDS011;67142;47.404;-1.384;2023-06-26T14:00:52;1103.30;;;350.33;;
77944;SDS011;67142;47.404;-1.384;2023-06-26T14:03:18;1093.35;;;347.83;;
77944;SDS011;67142;47.404;-1.384;2023-06-26T14:05:44;1113.15;;;354.13;;